createdAt,value
2022-08-28T00:00:52.966Z,12.90
2022-08-28T00:01:55.578Z,10.40
2022-08-28T00:02:57.917Z,9.77
2022-08-28T00:04:00.829Z,10.10
2022-08-28T00:05:02.655Z,10.10
2022-08-28T00:06:04.535Z,10.37
2022-08-28T00:07:07.198Z,10.30
2022-08-28T00:08:10.367Z,10.13
2022-08-28T00:09:12.538Z,9.50
2022-08-28T00:10:16.329Z,10.53
2022-08-28T00:11:17.796Z,10.40
2022-08-28T00:12:19.936Z,11.57
2022-08-28T00:13:23.870Z,9.90
2022-08-28T00:14:26.240Z,10.83
2022-08-28T00:15:37.963Z,9.80
2022-08-28T00:16:39.746Z,13.00
2022-08-28T00:17:42.029Z,10.57
2022-08-28T00:18:43.512Z,9.60
2022-08-28T00:19:48.599Z,11.07
2022-08-28T00:20:53.152Z,12.33
2022-08-28T00:21:55.049Z,11.50
2022-08-28T00:22:57.156Z,10.50
2022-08-28T00:24:00.380Z,10.07
2022-08-28T00:25:02.495Z,10.30
2022-08-28T00:26:04.049Z,13.10
2022-08-28T00:27:26.043Z,10.97
2022-08-28T00:28:27.634Z,11.03
2022-08-28T00:29:29.973Z,12.73
2022-08-28T00:30:36.742Z,10.70
2022-08-28T00:31:39.635Z,11.33
2022-08-28T00:32:41.203Z,10.33
2022-08-28T00:33:43.276Z,10.23
2022-08-28T00:34:44.743Z,10.40
2022-08-28T00:35:47.908Z,11.27
2022-08-28T00:36:49.696Z,9.67
2022-08-28T00:37:54.641Z,9.47
2022-08-28T00:39:00.310Z,10.17
2022-08-28T00:40:02.232Z,13.20
2022-08-28T00:41:05.038Z,10.47
2022-08-28T00:42:07.022Z,12.63
2022-08-28T00:43:10.415Z,10.03
2022-08-28T00:44:19.028Z,10.60
2022-08-28T00:45:21.290Z,9.73
2022-08-28T00:46:24.120Z,11.10
2022-08-28T00:47:26.875Z,10.10
2022-08-28T00:48:28.485Z,9.90
2022-08-28T00:49:37.565Z,9.97
2022-08-28T00:51:00.520Z,12.00
2022-08-28T00:52:05.968Z,10.40
2022-08-28T00:53:07.839Z,10.47
2022-08-28T00:54:09.779Z,9.63
2022-08-28T00:55:15.720Z,9.57
2022-08-28T00:56:19.322Z,10.00
2022-08-28T00:57:27.002Z,9.87
2022-08-28T00:58:29.553Z,18.40
2022-08-28T00:59:31.065Z,10.40
2022-08-28T01:00:37.874Z,10.63
2022-08-28T01:01:39.651Z,19.03
2022-08-28T01:02:41.589Z,9.40
2022-08-28T01:03:44.902Z,10.47
2022-08-28T01:04:48.417Z,9.63
2022-08-28T01:05:49.918Z,10.00
2022-08-28T01:06:55.442Z,13.13
2022-08-28T01:07:58.878Z,11.07
2022-08-28T01:09:00.633Z,10.70
2022-08-28T01:10:02.430Z,11.27
2022-08-28T01:11:06.117Z,11.40
2022-08-28T01:12:11.785Z,12.13
2022-08-28T01:13:14.496Z,10.73
2022-08-28T01:14:20.276Z,10.53
2022-08-28T01:15:25.982Z,9.00
2022-08-28T01:16:29.297Z,9.70
2022-08-28T01:17:36.876Z,10.80
2022-08-28T01:18:43.244Z,9.83
2022-08-28T01:19:56.371Z,9.90
2022-08-28T01:21:20.136Z,11.63
2022-08-28T01:22:39.863Z,10.27
2022-08-28T01:24:04.738Z,10.70
2022-08-28T01:25:11.439Z,10.93
2022-08-28T01:26:13.242Z,11.57
2022-08-28T01:27:14.753Z,10.03
2022-08-28T01:28:16.705Z,11.30
2022-08-28T01:29:18.293Z,10.90
2022-08-28T01:30:23.505Z,11.00
2022-08-28T01:31:27.156Z,10.93
2022-08-28T01:32:36.765Z,11.47
2022-08-28T01:33:42.381Z,9.37
2022-08-28T01:34:44.200Z,10.47
2022-08-28T01:35:48.053Z,10.70
2022-08-28T01:36:49.714Z,16.43
2022-08-28T01:37:52.065Z,10.10
2022-08-28T01:38:59.030Z,11.27
2022-08-28T01:40:01.379Z,17.80
2022-08-28T01:41:03.247Z,10.50
2022-08-28T01:42:06.843Z,10.10
2022-08-28T01:43:26.850Z,10.30
2022-08-28T01:44:28.656Z,10.47
2022-08-28T01:45:30.955Z,12.23
2022-08-28T01:46:33.205Z,10.20
2022-08-28T01:47:35.010Z,11.70
2022-08-28T01:48:39.475Z,12.27
2022-08-28T01:49:41.397Z,11.07
2022-08-28T01:50:43.318Z,13.07
2022-08-28T01:51:45.202Z,16.53
2022-08-28T01:52:47.053Z,10.60
2022-08-28T01:53:48.528Z,11.67
2022-08-28T01:54:50.368Z,11.00
2022-08-28T01:55:56.277Z,11.90
2022-08-28T01:56:58.112Z,10.43
2022-08-28T01:57:59.625Z,11.37
2022-08-28T01:59:04.894Z,11.23
2022-08-28T02:00:07.290Z,19.33
2022-08-28T02:01:17.770Z,13.20
2022-08-28T02:02:19.769Z,12.27
2022-08-28T02:03:22.886Z,11.53
2022-08-28T02:04:31.795Z,11.23
2022-08-28T02:05:35.105Z,11.50
2022-08-28T02:06:37.848Z,10.97
2022-08-28T02:07:39.770Z,11.80
2022-08-28T02:08:41.336Z,13.73
2022-08-28T02:09:43.566Z,12.00
2022-08-28T02:10:45.201Z,11.40
2022-08-28T02:11:46.997Z,11.23
2022-08-28T02:12:49.966Z,10.27
2022-08-28T02:13:54.315Z,11.80
2022-08-28T02:14:57.853Z,11.73
2022-08-28T02:15:59.357Z,13.80
2022-08-28T02:17:00.898Z,11.80
2022-08-28T02:18:03.004Z,13.77
2022-08-28T02:19:04.849Z,10.93
2022-08-28T02:20:07.483Z,10.07
2022-08-28T02:21:10.201Z,10.43
2022-08-28T02:22:13.438Z,11.30
2022-08-28T02:23:15.186Z,11.50
2022-08-28T02:24:17.298Z,12.03
2022-08-28T02:25:19.814Z,11.27
2022-08-28T02:26:22.154Z,11.40
2022-08-28T02:27:23.690Z,11.33
2022-08-28T02:28:25.457Z,13.53
2022-08-28T02:29:27.174Z,12.00
2022-08-28T02:30:29.986Z,11.03
2022-08-28T02:31:31.592Z,11.60
2022-08-28T02:32:33.345Z,12.13
2022-08-28T02:33:40.475Z,11.60
2022-08-28T02:34:43.629Z,11.77
2022-08-28T02:35:45.120Z,14.73
2022-08-28T02:36:47.437Z,12.40
2022-08-28T02:37:49.437Z,11.43
2022-08-28T02:38:56.961Z,12.13
2022-08-28T02:40:00.109Z,12.50
2022-08-28T02:41:01.798Z,14.30
2022-08-28T02:42:06.398Z,11.60
2022-08-28T02:43:07.933Z,12.30
2022-08-28T02:44:10.301Z,12.80
2022-08-28T02:45:13.055Z,10.63
2022-08-28T02:46:14.615Z,11.17
2022-08-28T02:47:16.775Z,11.60
2022-08-28T02:48:18.453Z,10.67
2022-08-28T02:49:20.062Z,10.80
2022-08-28T02:50:21.830Z,15.47
2022-08-28T02:51:23.467Z,10.97
2022-08-28T02:52:24.933Z,11.43
2022-08-28T02:53:27.197Z,11.83
2022-08-28T02:54:28.972Z,13.47
2022-08-28T02:55:34.208Z,11.20
2022-08-28T02:56:36.590Z,13.03
2022-08-28T02:57:38.382Z,13.83
2022-08-28T02:58:40.725Z,10.87
2022-08-28T02:59:43.930Z,12.30
2022-08-28T03:00:45.415Z,10.70
2022-08-28T03:01:47.443Z,14.00
2022-08-28T03:02:50.157Z,12.30
2022-08-28T03:03:51.853Z,10.77
2022-08-28T03:04:55.579Z,10.87
2022-08-28T03:06:01.456Z,11.23
2022-08-28T03:07:04.615Z,21.77
2022-08-28T03:08:06.254Z,11.80
2022-08-28T03:09:08.087Z,12.40
2022-08-28T03:10:10.191Z,11.40
2022-08-28T03:11:12.616Z,11.60
2022-08-28T03:12:14.491Z,11.33
2022-08-28T03:13:26.402Z,11.37
2022-08-28T03:14:28.945Z,17.77
2022-08-28T03:15:30.713Z,11.57
2022-08-28T03:16:34.083Z,11.30
2022-08-28T03:17:37.204Z,10.27
2022-08-28T03:18:38.868Z,12.07
2022-08-28T03:19:40.315Z,13.10
2022-08-28T03:20:42.341Z,11.83
2022-08-28T03:21:44.038Z,12.17
2022-08-28T03:23:04.329Z,11.00
2022-08-28T03:24:06.120Z,11.60
2022-08-28T03:25:08.026Z,13.20
2022-08-28T03:26:13.121Z,14.60
2022-08-28T03:27:14.585Z,13.90
2022-08-28T03:28:16.174Z,13.00
2022-08-28T03:29:18.239Z,13.00
2022-08-28T03:30:21.150Z,10.87
2022-08-28T03:31:26.963Z,11.00
2022-08-28T03:32:29.430Z,11.77
2022-08-28T03:33:30.904Z,11.30
2022-08-28T03:34:33.598Z,12.10
2022-08-28T03:35:35.274Z,10.73
2022-08-28T03:36:36.873Z,11.30
2022-08-28T03:37:39.063Z,10.93
2022-08-28T03:38:41.855Z,11.80
2022-08-28T03:39:43.757Z,11.70
2022-08-28T03:40:46.998Z,11.10
2022-08-28T03:41:48.506Z,13.30
2022-08-28T03:42:53.641Z,10.33
2022-08-28T03:43:57.365Z,11.93
2022-08-28T03:44:58.895Z,12.03
2022-08-28T03:46:03.387Z,11.50
2022-08-28T03:47:06.176Z,13.30
2022-08-28T03:48:08.480Z,12.20
2022-08-28T03:49:10.894Z,11.33
2022-08-28T03:50:13.852Z,12.67
2022-08-28T03:51:22.469Z,12.07
2022-08-28T03:52:31.564Z,10.60
2022-08-28T03:53:33.185Z,11.33
2022-08-28T03:54:35.005Z,11.27
2022-08-28T03:55:37.087Z,12.30
2022-08-28T03:56:42.476Z,11.80
2022-08-28T03:57:43.944Z,11.30
2022-08-28T03:58:45.870Z,12.50
2022-08-28T03:59:48.792Z,12.43
2022-08-28T04:00:53.249Z,11.03
2022-08-28T04:01:55.662Z,12.37
2022-08-28T04:02:58.042Z,12.03
2022-08-28T04:04:00.115Z,15.90
2022-08-28T04:05:01.631Z,11.70
2022-08-28T04:06:05.308Z,12.13
2022-08-28T04:07:06.845Z,12.17
2022-08-28T04:08:09.735Z,13.50
2022-08-28T04:09:11.910Z,15.77
2022-08-28T04:10:13.787Z,12.33
2022-08-28T04:11:15.594Z,11.40
2022-08-28T04:12:17.041Z,11.77
2022-08-28T04:13:20.542Z,17.23
2022-08-28T04:14:22.456Z,13.10
2022-08-28T04:15:23.958Z,12.30
2022-08-28T04:16:25.482Z,12.43
2022-08-28T04:17:26.920Z,12.77
2022-08-28T04:18:29.478Z,13.17
2022-08-28T04:19:31.546Z,12.63
2022-08-28T04:20:33.185Z,13.43
2022-08-28T04:21:34.712Z,11.77
2022-08-28T04:22:37.166Z,12.67
2022-08-28T04:23:43.322Z,12.57
2022-08-28T04:24:45.030Z,12.30
2022-08-28T04:25:46.623Z,13.10
2022-08-28T04:26:48.533Z,13.03
2022-08-28T04:27:51.583Z,11.33
2022-08-28T04:28:55.052Z,12.03
2022-08-28T04:29:57.887Z,12.27
2022-08-28T04:30:59.796Z,13.70
2022-08-28T04:32:02.628Z,11.23
2022-08-28T04:33:06.151Z,12.00
2022-08-28T04:34:09.182Z,12.53
2022-08-28T04:35:12.263Z,11.57
2022-08-28T04:36:15.921Z,11.40
2022-08-28T04:37:18.447Z,12.70
2022-08-28T04:38:20.439Z,11.40
2022-08-28T04:39:21.966Z,12.13
2022-08-28T04:40:24.409Z,17.97
2022-08-28T04:41:27.134Z,12.53
2022-08-28T04:42:29.082Z,12.10
2022-08-28T04:43:30.717Z,12.40
2022-08-28T04:44:32.525Z,12.33
2022-08-28T04:45:39.626Z,12.10
2022-08-28T04:46:41.204Z,13.20
2022-08-28T04:47:43.804Z,11.80
2022-08-28T04:48:45.254Z,12.33
2022-08-28T04:49:46.701Z,13.13
2022-08-28T04:50:49.973Z,12.57
2022-08-28T04:51:51.681Z,11.83
2022-08-28T04:52:53.782Z,12.50
2022-08-28T04:53:55.723Z,12.40
2022-08-28T04:54:57.652Z,28.50
2022-08-28T04:56:00.715Z,12.13
2022-08-28T04:57:02.827Z,14.30
2022-08-28T04:58:08.076Z,11.73
2022-08-28T04:59:11.503Z,12.37
2022-08-28T05:00:13.550Z,12.60
2022-08-28T05:01:20.356Z,11.77
2022-08-28T05:02:22.216Z,12.10
2022-08-28T05:03:24.153Z,12.70
2022-08-28T05:04:26.997Z,12.37
2022-08-28T05:05:28.514Z,12.90
2022-08-28T05:06:32.743Z,12.70
2022-08-28T05:07:34.815Z,13.17
2022-08-28T05:08:36.870Z,13.30
2022-08-28T05:09:39.226Z,11.73
2022-08-28T05:10:41.591Z,12.17
2022-08-28T05:11:44.580Z,12.80
2022-08-28T05:12:45.999Z,13.17
2022-08-28T05:13:48.781Z,11.60
2022-08-28T05:14:51.907Z,16.60
2022-08-28T05:15:55.751Z,13.87
2022-08-28T05:16:58.134Z,11.97
2022-08-28T05:17:59.895Z,11.93
2022-08-28T05:19:03.118Z,14.10
2022-08-28T05:20:05.630Z,12.60
2022-08-28T05:21:14.511Z,13.60
2022-08-28T05:22:16.127Z,12.97
2022-08-28T05:23:18.046Z,12.27
2022-08-28T05:24:19.693Z,14.13
2022-08-28T05:25:21.289Z,22.13
2022-08-28T05:26:23.689Z,10.80
2022-08-28T05:27:29.394Z,13.30
2022-08-28T05:28:31.200Z,17.67
2022-08-28T05:29:32.746Z,11.67
2022-08-28T05:30:34.836Z,12.50
2022-08-28T05:31:39.089Z,12.03
2022-08-28T05:32:42.532Z,12.50
2022-08-28T05:33:45.691Z,15.40
2022-08-28T05:34:47.707Z,11.80
2022-08-28T05:35:49.386Z,12.30
2022-08-28T05:36:51.027Z,12.10
2022-08-28T05:37:52.836Z,12.67
2022-08-28T05:38:58.486Z,12.23
2022-08-28T05:40:00.288Z,12.77
2022-08-28T05:41:03.281Z,13.73
2022-08-28T05:42:05.669Z,12.77
2022-08-28T05:43:07.378Z,14.80
2022-08-28T05:44:11.498Z,13.10
2022-08-28T05:45:13.516Z,13.47
2022-08-28T05:46:16.298Z,13.47
2022-08-28T05:47:18.413Z,12.80
2022-08-28T05:48:23.187Z,16.23
2022-08-28T05:49:24.917Z,14.17
2022-08-28T05:50:26.724Z,12.40
2022-08-28T05:51:28.815Z,13.27
2022-08-28T05:52:31.097Z,12.13
2022-08-28T05:53:35.701Z,13.03
2022-08-28T05:54:37.263Z,13.17
2022-08-28T05:55:40.831Z,12.47
2022-08-28T05:56:44.216Z,12.70
2022-08-28T05:57:45.714Z,12.73
2022-08-28T05:58:47.624Z,12.90
2022-08-28T05:59:50.261Z,12.60
2022-08-28T06:00:52.077Z,12.60
2022-08-28T06:01:53.600Z,11.63
2022-08-28T06:02:55.754Z,15.60
2022-08-28T06:03:58.525Z,11.90
2022-08-28T06:05:00.822Z,12.83
2022-08-28T06:06:02.480Z,11.80
2022-08-28T06:07:05.547Z,11.83
2022-08-28T06:08:08.434Z,12.33
2022-08-28T06:09:14.245Z,12.00
2022-08-28T06:10:15.742Z,15.33
2022-08-28T06:11:20.946Z,12.23
2022-08-28T06:12:25.210Z,11.93
2022-08-28T06:13:27.084Z,13.40
2022-08-28T06:14:31.200Z,12.03
2022-08-28T06:15:33.114Z,11.13
2022-08-28T06:16:36.912Z,12.03
2022-08-28T06:17:38.684Z,12.27
2022-08-28T06:18:41.194Z,13.63
2022-08-28T06:19:43.002Z,19.03
2022-08-28T06:20:46.452Z,11.43
2022-08-28T06:21:48.385Z,11.23
2022-08-28T06:22:51.056Z,13.27
2022-08-28T06:23:52.489Z,11.97
2022-08-28T06:24:54.800Z,11.40
2022-08-28T06:25:57.630Z,11.03
2022-08-28T06:26:59.853Z,11.17
2022-08-28T06:28:01.605Z,13.57
2022-08-28T06:29:06.807Z,10.30
2022-08-28T06:30:09.355Z,11.17
2022-08-28T06:31:28.797Z,10.90
2022-08-28T06:32:33.124Z,16.73
2022-08-28T06:33:34.992Z,12.13
2022-08-28T06:34:36.464Z,13.87
2022-08-28T06:35:47.614Z,12.30
2022-08-28T06:36:53.620Z,11.37
2022-08-28T06:37:55.924Z,11.80
2022-08-28T06:39:00.094Z,12.60
2022-08-28T06:40:01.999Z,11.53
2022-08-28T06:41:09.278Z,11.43
2022-08-28T06:42:11.069Z,11.83
2022-08-28T06:43:14.720Z,11.87
2022-08-28T06:44:19.892Z,12.03
2022-08-28T06:45:21.466Z,12.67
2022-08-28T06:46:23.354Z,11.80
2022-08-28T06:47:25.188Z,10.80
2022-08-28T06:48:28.438Z,9.50
2022-08-28T06:49:29.913Z,11.77
2022-08-28T06:50:31.467Z,11.90
2022-08-28T06:51:33.086Z,12.20
2022-08-28T06:52:34.926Z,11.83
2022-08-28T06:53:40.910Z,11.70
2022-08-28T06:54:50.433Z,14.23
2022-08-28T06:56:07.211Z,13.40
2022-08-28T06:57:08.774Z,11.40
2022-08-28T06:58:12.457Z,12.30
2022-08-28T06:59:14.199Z,15.10
2022-08-28T07:00:15.871Z,13.63
2022-08-28T07:01:22.636Z,11.30
2022-08-28T07:02:24.329Z,17.50
2022-08-28T07:03:30.741Z,11.57
2022-08-28T07:04:33.106Z,14.73
2022-08-28T07:05:35.124Z,11.77
2022-08-28T07:06:39.147Z,12.33
2022-08-28T07:07:40.885Z,19.17
2022-08-28T07:08:44.136Z,13.00
2022-08-28T07:09:46.369Z,12.53
2022-08-28T07:10:48.047Z,16.20
2022-08-28T07:11:49.884Z,14.23
2022-08-28T07:12:51.731Z,12.17
2022-08-28T07:13:54.106Z,12.93
2022-08-28T07:14:55.650Z,11.77
2022-08-28T07:15:57.794Z,12.23
2022-08-28T07:16:59.457Z,12.27
2022-08-28T07:18:01.169Z,11.90
2022-08-28T07:19:04.938Z,12.97
2022-08-28T07:20:07.375Z,12.20
2022-08-28T07:21:12.277Z,12.37
2022-08-28T07:22:14.349Z,12.80
2022-08-28T07:23:15.822Z,13.10
2022-08-28T07:24:18.266Z,16.80
2022-08-28T07:25:20.126Z,12.73
2022-08-28T07:26:24.738Z,22.63
2022-08-28T07:27:26.228Z,16.03
2022-08-28T07:28:28.007Z,17.43
2022-08-28T07:29:30.142Z,15.10
2022-08-28T07:30:31.593Z,15.00
2022-08-28T07:31:34.005Z,15.30
2022-08-28T07:32:36.203Z,11.63
2022-08-28T07:33:39.183Z,12.97
2022-08-28T07:34:42.213Z,12.03
2022-08-28T07:35:44.367Z,11.93
2022-08-28T07:36:46.219Z,12.47
2022-08-28T07:37:49.142Z,14.80
2022-08-28T07:38:51.107Z,11.60
2022-08-28T07:39:53.012Z,12.20
2022-08-28T07:40:55.442Z,16.33
2022-08-28T07:41:56.922Z,19.20
2022-08-28T07:43:24.898Z,12.33
2022-08-28T07:44:45.219Z,12.40
2022-08-28T07:45:46.794Z,14.80
2022-08-28T07:46:48.305Z,15.63
2022-08-28T07:47:51.183Z,13.97
2022-08-28T07:48:53.835Z,11.50
2022-08-28T07:49:55.379Z,13.00
2022-08-28T07:50:57.210Z,11.40
2022-08-28T07:51:58.914Z,12.40
2022-08-28T07:53:00.482Z,12.17
2022-08-28T07:54:03.935Z,13.90
2022-08-28T07:55:06.291Z,13.07
2022-08-28T07:56:08.352Z,15.37
2022-08-28T07:57:10.519Z,15.50
2022-08-28T07:58:13.667Z,14.23
2022-08-28T07:59:17.405Z,12.63
2022-08-28T08:00:20.998Z,14.10
2022-08-28T08:01:22.839Z,12.70
2022-08-28T08:02:24.765Z,13.60
2022-08-28T08:03:26.543Z,13.00
2022-08-28T08:04:28.219Z,13.63
2022-08-28T08:05:29.723Z,12.90
2022-08-28T08:06:33.058Z,12.60
2022-08-28T08:07:39.907Z,20.40
2022-08-28T08:08:46.347Z,12.87
2022-08-28T08:09:48.228Z,12.23
2022-08-28T08:11:18.716Z,13.07
2022-08-28T08:12:21.796Z,12.37
2022-08-28T08:13:23.274Z,12.33
2022-08-28T08:14:25.399Z,14.93
2022-08-28T08:15:31.130Z,13.37
2022-08-28T08:16:36.035Z,14.37
2022-08-28T08:17:39.389Z,18.33
2022-08-28T08:18:41.906Z,16.73
2022-08-28T08:19:43.432Z,13.17
2022-08-28T08:20:45.475Z,14.50
2022-08-28T08:21:53.144Z,13.17
2022-08-28T08:22:57.239Z,12.87
2022-08-28T08:23:59.198Z,12.80
2022-08-28T08:25:00.929Z,13.80
2022-08-28T08:26:05.378Z,15.20
2022-08-28T08:27:07.179Z,17.93
2022-08-28T08:28:08.909Z,15.23
2022-08-28T08:29:13.293Z,14.57
2022-08-28T08:30:14.972Z,13.63
2022-08-28T08:31:26.729Z,13.00
2022-08-28T08:32:28.677Z,11.73
2022-08-28T08:33:30.330Z,12.53
2022-08-28T08:34:38.605Z,12.10
2022-08-28T08:35:40.233Z,12.83
2022-08-28T08:36:41.934Z,14.40
2022-08-28T08:37:43.921Z,13.53
2022-08-28T08:38:46.190Z,16.60
2022-08-28T08:39:47.978Z,20.00
2022-08-28T08:40:49.547Z,20.63
2022-08-28T08:41:57.128Z,16.27
2022-08-28T08:42:58.584Z,14.80
2022-08-28T08:44:08.872Z,12.27
2022-08-28T08:45:13.675Z,14.80
2022-08-28T08:46:15.623Z,15.07
2022-08-28T08:47:19.423Z,15.33
2022-08-28T08:48:34.295Z,16.80
2022-08-28T08:49:39.009Z,13.90
2022-08-28T08:50:41.693Z,15.03
2022-08-28T08:51:53.679Z,17.33
2022-08-28T08:53:28.415Z,15.67
2022-08-28T08:54:30.904Z,17.30
2022-08-28T08:55:36.056Z,16.60
2022-08-28T08:56:40.105Z,18.43
2022-08-28T08:57:44.408Z,15.13
2022-08-28T08:58:54.426Z,22.00
2022-08-28T08:59:55.890Z,24.83
2022-08-28T09:01:16.547Z,20.00
2022-08-28T09:02:22.820Z,20.33
2022-08-28T09:04:00.530Z,24.43
2022-08-28T09:05:07.482Z,24.50
2022-08-28T09:06:38.521Z,21.00
2022-08-28T09:07:57.500Z,22.90
2022-08-28T09:09:05.095Z,24.87
2022-08-28T09:10:11.186Z,24.03
2022-08-28T09:11:22.128Z,24.33
2022-08-28T09:12:25.653Z,22.73
2022-08-28T09:13:57.924Z,23.20
2022-08-28T09:15:09.828Z,21.83
2022-08-28T09:16:23.526Z,26.70
2022-08-28T09:17:31.528Z,24.90
2022-08-28T09:18:34.734Z,22.73
2022-08-28T09:19:36.544Z,23.50
2022-08-28T09:20:38.681Z,22.40
2022-08-28T09:21:42.928Z,26.83
2022-08-28T09:22:46.923Z,22.10
2022-08-28T09:23:48.349Z,23.30
2022-08-28T09:24:51.574Z,20.07
2022-08-28T09:25:56.616Z,22.57
2022-08-28T09:27:07.489Z,23.67
2022-08-28T09:28:15.178Z,21.97
2022-08-28T09:29:18.973Z,22.90
2022-08-28T09:30:31.442Z,21.70
2022-08-28T09:31:39.673Z,24.10
2022-08-28T09:32:44.591Z,24.27
2022-08-28T09:33:49.101Z,21.03
2022-08-28T09:34:59.788Z,22.90
2022-08-28T09:36:23.276Z,22.53
2022-08-28T09:37:32.548Z,18.50
2022-08-28T09:38:34.552Z,25.73
2022-08-28T09:39:36.017Z,21.60
2022-08-28T09:40:56.907Z,24.70
2022-08-28T09:42:20.086Z,21.73
2022-08-28T09:43:26.916Z,21.27
2022-08-28T09:44:28.539Z,24.30
2022-08-28T09:45:30.575Z,22.13
2022-08-28T09:46:32.791Z,24.43
2022-08-28T09:47:48.716Z,22.57
2022-08-28T09:48:52.424Z,26.90
2022-08-28T09:49:54.089Z,21.80
2022-08-28T09:51:20.716Z,18.10
2022-08-28T09:52:25.386Z,16.77
2022-08-28T09:53:28.453Z,18.60
2022-08-28T09:54:39.711Z,18.40
2022-08-28T09:56:11.298Z,17.33
2022-08-28T09:57:12.910Z,17.50
2022-08-28T09:58:14.669Z,19.63
2022-08-28T09:59:23.581Z,15.93
2022-08-28T10:00:25.802Z,13.77
2022-08-28T10:01:33.491Z,15.27
2022-08-28T10:02:44.086Z,14.33
2022-08-28T10:04:00.317Z,14.10
2022-08-28T10:05:16.576Z,17.83
2022-08-28T10:06:33.299Z,16.40
2022-08-28T10:07:50.714Z,15.83
2022-08-28T10:09:29.805Z,12.67
2022-08-28T10:10:44.051Z,13.70
2022-08-28T10:12:08.202Z,15.00
2022-08-28T10:13:19.114Z,15.20
2022-08-28T10:14:41.280Z,13.00
2022-08-28T10:15:49.543Z,12.70
2022-08-28T10:17:16.489Z,13.63
2022-08-28T10:18:58.290Z,14.90
2022-08-28T10:20:19.686Z,13.20
2022-08-28T10:21:44.943Z,14.05
2022-08-28T10:23:09.358Z,14.27
2022-08-28T10:24:55.908Z,14.07
2022-08-28T10:26:08.677Z,14.45
2022-08-28T10:27:21.802Z,15.88
2022-08-28T10:28:45.054Z,16.42
2022-08-28T10:29:52.377Z,14.73
2022-08-28T10:31:17.178Z,13.65
2022-08-28T10:32:54.638Z,14.80
2022-08-28T10:34:22.861Z,23.02
2022-08-28T10:35:39.045Z,18.30
2022-08-28T10:36:41.574Z,16.05
2022-08-28T10:38:28.335Z,16.80
2022-08-28T10:39:54.788Z,16.13
2022-08-28T10:41:09.648Z,15.63
2022-08-28T10:42:11.634Z,14.38
2022-08-28T10:43:44.294Z,14.80
2022-08-28T10:44:58.441Z,16.48
2022-08-28T10:46:15.934Z,12.82
2022-08-28T10:47:21.851Z,13.32
2022-08-28T10:48:32.617Z,15.90
2022-08-28T10:49:47.506Z,14.05
2022-08-28T10:51:15.980Z,17.60
2022-08-28T10:52:23.000Z,17.05
2022-08-28T10:53:42.709Z,17.17
2022-08-28T10:55:00.166Z,14.25
2022-08-28T10:56:08.895Z,14.02
2022-08-28T10:57:39.896Z,12.88
2022-08-28T10:58:42.132Z,12.70
2022-08-28T10:59:48.663Z,15.52
2022-08-28T11:00:51.169Z,13.32
2022-08-28T11:01:53.192Z,12.65
2022-08-28T11:03:33.424Z,12.90
2022-08-28T11:04:36.811Z,15.93
2022-08-28T11:05:53.696Z,13.82
2022-08-28T11:07:06.729Z,12.77
2022-08-28T11:08:41.534Z,13.95
2022-08-28T11:09:47.372Z,12.27
2022-08-28T11:10:51.754Z,13.27
2022-08-28T11:12:02.056Z,12.85
2022-08-28T11:13:06.862Z,11.50
2022-08-28T11:14:09.986Z,13.02
2022-08-28T11:15:37.234Z,15.55
2022-08-28T11:16:50.388Z,12.38
2022-08-28T11:18:14.695Z,12.35
2022-08-28T11:19:26.210Z,11.77
2022-08-28T11:20:29.926Z,12.23
2022-08-28T11:21:40.500Z,12.07
2022-08-28T11:22:46.978Z,11.45
2022-08-28T11:23:57.457Z,15.98
2022-08-28T11:25:11.407Z,13.23
2022-08-28T11:26:16.128Z,12.50
2022-08-28T11:27:24.477Z,11.30
2022-08-28T11:28:26.049Z,11.25
2022-08-28T11:30:00.241Z,12.55
2022-08-28T11:31:05.740Z,12.55
2022-08-28T11:32:28.725Z,11.82
2022-08-28T11:33:52.589Z,11.65
2022-08-28T11:35:05.639Z,13.73
2022-08-28T11:36:30.214Z,11.98
2022-08-28T11:37:58.196Z,13.27
2022-08-28T11:39:17.571Z,12.43
2022-08-28T11:40:21.323Z,11.98
2022-08-28T11:41:27.217Z,10.55
2022-08-28T11:42:34.944Z,12.25
2022-08-28T11:43:38.007Z,11.10
2022-08-28T11:44:45.262Z,14.85
2022-08-28T11:45:47.372Z,10.98
2022-08-28T11:46:51.107Z,10.75
2022-08-28T11:47:56.461Z,10.55
2022-08-28T11:49:02.125Z,8.93
2022-08-28T11:50:26.663Z,9.38
2022-08-28T11:51:50.124Z,9.40
2022-08-28T11:53:10.028Z,10.43
2022-08-28T11:54:35.465Z,9.75
2022-08-28T11:55:59.491Z,9.90
2022-08-28T11:57:31.933Z,10.13
2022-08-28T11:58:41.815Z,9.95
2022-08-28T11:59:57.316Z,9.85
2022-08-28T12:01:10.793Z,9.07
2022-08-28T12:02:40.089Z,9.02
2022-08-28T12:03:43.547Z,7.47
2022-08-28T12:04:45.521Z,7.70
2022-08-28T12:05:50.727Z,7.78
2022-08-28T12:07:16.140Z,7.57
2022-08-28T12:08:45.526Z,7.18
2022-08-28T12:09:49.540Z,6.85
2022-08-28T12:10:55.433Z,7.90
2022-08-28T12:12:16.361Z,7.38
2022-08-28T12:13:42.895Z,7.63
2022-08-28T12:14:44.400Z,7.05
2022-08-28T12:16:06.893Z,7.70
2022-08-28T12:17:25.951Z,7.50
2022-08-28T12:18:52.853Z,7.43
2022-08-28T12:20:10.318Z,7.82
2022-08-28T12:21:24.896Z,8.07
2022-08-28T12:22:44.863Z,7.07
2022-08-28T12:24:09.094Z,7.43
2022-08-28T12:25:27.721Z,6.32
2022-08-28T12:26:36.058Z,6.47
2022-08-28T12:27:39.606Z,8.02
2022-08-28T12:28:45.942Z,6.30
2022-08-28T12:30:00.324Z,6.70
2022-08-28T12:31:04.785Z,5.82
2022-08-28T12:32:16.458Z,10.45
2022-08-28T12:33:32.717Z,11.32
2022-08-28T12:34:53.056Z,6.32
2022-08-28T12:36:00.623Z,6.38
2022-08-28T12:37:05.476Z,6.57
2022-08-28T12:38:09.298Z,6.28
2022-08-28T12:39:18.882Z,5.70
2022-08-28T12:40:27.662Z,6.90
2022-08-28T12:41:30.031Z,6.90
2022-08-28T12:42:35.344Z,6.25
2022-08-28T12:43:44.339Z,6.70
2022-08-28T12:44:49.045Z,6.82
2022-08-28T12:46:24.863Z,7.18
2022-08-28T12:47:27.450Z,7.88
2022-08-28T12:48:47.014Z,6.55
2022-08-28T12:49:49.132Z,6.40
2022-08-28T12:51:17.673Z,6.10
2022-08-28T12:52:22.799Z,6.75
2022-08-28T12:53:24.615Z,6.75
2022-08-28T12:54:27.904Z,6.40
2022-08-28T12:55:29.663Z,6.13
2022-08-28T12:56:37.260Z,7.40
2022-08-28T12:57:45.898Z,8.25
2022-08-28T12:58:48.346Z,8.52
2022-08-28T12:59:55.499Z,8.32
2022-08-28T13:01:14.713Z,9.57
2022-08-28T13:02:27.791Z,10.55
2022-08-28T13:03:29.756Z,8.73
2022-08-28T13:04:33.711Z,9.48
2022-08-28T13:05:41.317Z,11.85
2022-08-28T13:06:42.903Z,9.45
2022-08-28T13:07:54.196Z,8.82
2022-08-28T13:09:20.217Z,8.98
2022-08-28T13:10:31.217Z,9.20
2022-08-28T13:11:38.791Z,9.02
2022-08-28T13:12:54.959Z,9.35
2022-08-28T13:13:58.479Z,9.18
2022-08-28T13:15:01.193Z,9.48
2022-08-28T13:16:09.145Z,8.73
2022-08-28T13:17:13.360Z,8.80
2022-08-28T13:18:59.735Z,8.60
2022-08-28T13:20:07.134Z,11.35
2022-08-28T13:21:30.759Z,9.30
2022-08-28T13:22:40.601Z,8.50
2022-08-28T13:23:42.520Z,11.68
2022-08-28T13:24:45.871Z,8.63
2022-08-28T13:25:47.704Z,8.38
2022-08-28T13:26:59.368Z,10.18
2022-08-28T13:28:04.864Z,9.27
2022-08-28T13:29:24.252Z,10.57
2022-08-28T13:30:30.452Z,9.27
2022-08-28T13:31:41.140Z,9.30
2022-08-28T13:32:56.047Z,8.30
2022-08-28T13:34:26.442Z,9.23
2022-08-28T13:35:28.232Z,8.88
2022-08-28T13:36:41.368Z,8.15
2022-08-28T13:37:48.362Z,10.52
2022-08-28T13:38:49.838Z,8.77
2022-08-28T13:39:51.250Z,7.32
2022-08-28T13:40:59.460Z,8.93
2022-08-28T13:42:13.608Z,8.25
2022-08-28T13:43:16.385Z,7.82
2022-08-28T13:44:30.472Z,8.40
2022-08-28T13:45:35.637Z,7.88
2022-08-28T13:46:44.190Z,8.25
2022-08-28T13:47:45.699Z,7.93
2022-08-28T13:48:47.153Z,8.50
2022-08-28T13:49:49.057Z,8.27
2022-08-28T13:51:20.869Z,8.48
2022-08-28T13:52:22.969Z,8.27
2022-08-28T13:53:26.940Z,11.48
2022-08-28T13:54:28.749Z,8.20
2022-08-28T13:55:30.996Z,8.63
2022-08-28T13:56:32.830Z,8.55
2022-08-28T13:57:34.288Z,8.13
2022-08-28T13:58:38.217Z,9.40
2022-08-28T13:59:40.231Z,9.35
2022-08-28T14:00:45.349Z,8.52
2022-08-28T14:02:05.785Z,8.68
2022-08-28T14:03:26.377Z,8.98
2022-08-28T14:04:28.142Z,8.20
2022-08-28T14:05:29.942Z,7.90
2022-08-28T14:06:32.141Z,7.95
2022-08-28T14:07:33.934Z,8.02
2022-08-28T14:08:35.412Z,8.10
2022-08-28T14:09:38.185Z,8.68
2022-08-28T14:10:40.504Z,8.90
2022-08-28T14:11:42.898Z,8.32
2022-08-28T14:12:46.734Z,8.48
2022-08-28T14:13:55.747Z,8.48
2022-08-28T14:14:57.727Z,9.45
2022-08-28T14:15:59.234Z,8.10
2022-08-28T14:17:01.759Z,8.48
2022-08-28T14:18:03.262Z,12.23
2022-08-28T14:19:05.839Z,8.02
2022-08-28T14:20:07.799Z,11.68
2022-08-28T14:21:09.537Z,8.77